createdAt,value
2023-12-18T00:02:19.568Z,1.93
2023-12-18T00:05:22.237Z,1.84
2023-12-18T00:08:24.922Z,1.76
2023-12-18T00:11:27.605Z,1.66
2023-12-18T00:14:30.216Z,1.56
2023-12-18T00:17:33.081Z,1.50
2023-12-18T00:20:35.800Z,1.49
2023-12-18T00:23:38.442Z,1.39
2023-12-18T00:26:41.191Z,1.35
2023-12-18T00:29:43.850Z,1.30
2023-12-18T00:32:46.565Z,1.30
2023-12-18T00:35:49.257Z,1.24
2023-12-18T00:38:51.940Z,1.18
2023-12-18T00:41:54.619Z,1.27
2023-12-18T00:44:57.295Z,1.28
2023-12-18T00:48:00.083Z,1.31
2023-12-18T00:51:02.918Z,1.29
2023-12-18T00:54:05.667Z,1.26
2023-12-18T00:57:08.410Z,1.33
2023-12-18T01:00:11.706Z,1.31
2023-12-18T01:03:14.621Z,1.21
2023-12-18T01:06:17.613Z,1.18
2023-12-18T01:09:20.274Z,1.18
2023-12-18T01:12:22.927Z,1.19
2023-12-18T01:15:25.877Z,1.17
2023-12-18T01:18:28.681Z,1.16
2023-12-18T01:21:31.634Z,1.19
2023-12-18T01:24:34.469Z,1.17
2023-12-18T01:27:37.436Z,0.96
2023-12-18T01:30:40.379Z,0.94
2023-12-18T01:33:43.193Z,0.94
2023-12-18T01:36:45.982Z,1.00
2023-12-18T01:39:48.642Z,1.00
2023-12-18T01:42:51.322Z,0.95
2023-12-18T01:45:58.943Z,0.88
2023-12-18T01:49:02.655Z,0.86
2023-12-18T01:52:06.331Z,0.72
2023-12-18T01:55:11.503Z,0.79
2023-12-18T01:58:15.039Z,0.85
2023-12-18T02:01:17.982Z,0.88
2023-12-18T02:04:21.324Z,0.87
2023-12-18T02:07:25.074Z,0.80
2023-12-18T02:10:28.252Z,0.72
2023-12-18T02:13:30.906Z,0.62
2023-12-18T02:16:33.916Z,0.69
2023-12-18T02:19:36.896Z,0.78
2023-12-18T02:22:48.563Z,0.90
2023-12-18T02:25:51.928Z,0.93
2023-12-18T02:28:54.676Z,0.80
2023-12-18T02:31:58.780Z,0.86
2023-12-18T02:35:01.809Z,0.77
2023-12-18T02:38:04.905Z,0.72
2023-12-18T02:41:07.548Z,0.81
2023-12-18T02:44:10.147Z,0.71
2023-12-18T02:47:13.049Z,0.70
2023-12-18T02:50:16.797Z,0.61
2023-12-18T02:53:19.736Z,0.69
2023-12-18T02:56:22.432Z,0.75
2023-12-18T02:59:25.121Z,0.61
2023-12-18T03:02:27.760Z,0.65
2023-12-18T03:05:30.774Z,0.71
2023-12-18T03:08:33.727Z,0.64
2023-12-18T03:11:36.646Z,0.55
2023-12-18T03:14:39.524Z,0.51
2023-12-18T03:17:42.530Z,0.49
2023-12-18T03:20:45.583Z,0.49
2023-12-18T03:23:48.499Z,0.44
2023-12-18T03:26:51.367Z,0.42
2023-12-18T03:29:54.307Z,0.28
2023-12-18T03:32:57.449Z,-0.04
2023-12-18T03:36:00.386Z,-0.05
2023-12-18T03:39:03.418Z,-0.01
2023-12-18T03:42:06.431Z,0.05
2023-12-18T03:45:10.050Z,0.03
2023-12-18T03:48:12.964Z,0.13
2023-12-18T03:51:15.759Z,0.17
2023-12-18T03:54:18.375Z,0.19
2023-12-18T03:57:21.087Z,0.05
2023-12-18T04:00:23.761Z,0.13
2023-12-18T04:03:26.456Z,0.14
2023-12-18T04:06:29.581Z,0.12
2023-12-18T04:09:32.303Z,0.16
2023-12-18T04:12:35.108Z,0.27
2023-12-18T04:15:37.835Z,0.18
2023-12-18T04:18:40.781Z,0.35
2023-12-18T04:21:43.584Z,0.39
2023-12-18T04:24:46.301Z,0.36
2023-12-18T04:27:49.176Z,0.37
2023-12-18T04:30:52.010Z,0.38
2023-12-18T04:33:55.006Z,0.33
2023-12-18T04:36:59.507Z,0.26
2023-12-18T04:40:04.968Z,0.27
2023-12-18T04:43:07.735Z,0.33
2023-12-18T04:46:10.370Z,0.30
2023-12-18T04:49:14.456Z,0.27
2023-12-18T04:52:17.181Z,0.22
2023-12-18T04:55:19.799Z,0.17
2023-12-18T04:58:22.444Z,0.17
2023-12-18T05:01:25.094Z,0.16
2023-12-18T05:04:27.825Z,0.05
2023-12-18T05:07:30.567Z,-0.01
2023-12-18T05:10:33.220Z,0.03
2023-12-18T05:13:35.811Z,0.06
2023-12-18T05:16:38.409Z,0.06
2023-12-18T05:19:41.243Z,-0.13
2023-12-18T05:22:44.252Z,-0.06
2023-12-18T05:25:46.956Z,0.01
2023-12-18T05:28:49.614Z,0.08
2023-12-18T05:31:52.399Z,0.12
2023-12-18T05:34:55.079Z,0.17
2023-12-18T05:37:57.764Z,0.14
2023-12-18T05:41:00.533Z,-0.07
2023-12-18T05:44:03.168Z,-0.03
2023-12-18T05:47:05.854Z,0.00
2023-12-18T05:50:09.173Z,0.00
2023-12-18T05:53:11.835Z,0.12
2023-12-18T05:56:14.753Z,0.09
2023-12-18T05:59:17.359Z,0.07
2023-12-18T06:02:19.991Z,-0.08
2023-12-18T06:05:22.610Z,-0.03
2023-12-18T06:08:25.206Z,0.07
2023-12-18T06:11:27.869Z,0.07
2023-12-18T06:14:30.483Z,0.09
2023-12-18T06:17:33.834Z,0.20
2023-12-18T06:20:38.441Z,0.14
2023-12-18T06:23:44.030Z,0.18
2023-12-18T06:26:46.675Z,0.19
2023-12-18T06:29:49.405Z,0.21
2023-12-18T06:32:52.235Z,0.26
2023-12-18T06:35:55.355Z,0.37
2023-12-18T06:38:58.022Z,0.24
2023-12-18T06:42:00.706Z,0.34
2023-12-18T06:45:04.314Z,0.16
2023-12-18T06:48:07.302Z,0.38
2023-12-18T06:51:10.984Z,0.37
2023-12-18T06:54:13.813Z,0.44
2023-12-18T06:57:17.510Z,0.35
2023-12-18T07:00:28.850Z,0.49
2023-12-18T07:03:38.184Z,0.47
2023-12-18T07:06:41.028Z,0.62
2023-12-18T07:09:43.814Z,0.73
2023-12-18T07:12:47.083Z,0.82
2023-12-18T07:15:51.036Z,0.89
2023-12-18T07:18:54.863Z,0.92
2023-12-18T07:21:57.629Z,1.05
2023-12-18T07:25:00.391Z,1.11
2023-12-18T07:28:03.282Z,1.26
2023-12-18T07:31:06.022Z,1.40
2023-12-18T07:34:08.967Z,1.50
2023-12-18T07:37:11.694Z,1.60
2023-12-18T07:40:14.433Z,1.50
2023-12-18T07:43:17.233Z,1.79
2023-12-18T07:46:20.538Z,1.81
2023-12-18T07:49:23.992Z,1.90
2023-12-18T07:52:26.768Z,1.96
2023-12-18T07:55:29.453Z,2.02
2023-12-18T07:58:32.158Z,2.19
2023-12-18T08:01:35.784Z,2.28
2023-12-18T08:04:38.600Z,2.40
2023-12-18T08:07:41.366Z,2.60
2023-12-18T08:10:44.320Z,2.78
2023-12-18T08:13:50.747Z,2.81
2023-12-18T08:16:53.409Z,2.92
2023-12-18T08:19:56.073Z,2.98
2023-12-18T08:22:58.715Z,3.00
2023-12-18T08:26:01.332Z,3.19
2023-12-18T08:29:07.815Z,3.30
2023-12-18T08:32:11.759Z,3.36
2023-12-18T08:35:14.587Z,3.41
2023-12-18T08:38:17.244Z,3.56
2023-12-18T08:41:19.900Z,3.69
2023-12-18T08:44:23.056Z,3.78
2023-12-18T08:47:25.905Z,3.83
2023-12-18T08:50:28.671Z,3.92
2023-12-18T08:53:31.710Z,3.82
2023-12-18T08:56:34.440Z,4.17
2023-12-18T08:59:37.233Z,4.31
2023-12-18T09:02:40.109Z,4.43
2023-12-18T09:08:46.143Z,4.68
2023-12-18T09:11:48.824Z,4.73
2023-12-18T09:14:51.518Z,4.89
2023-12-18T09:17:54.212Z,5.00
2023-12-18T09:20:57.296Z,5.11
2023-12-18T09:24:00.019Z,5.20
2023-12-18T09:27:02.799Z,5.34
2023-12-18T09:30:07.927Z,5.34
2023-12-18T09:33:12.239Z,5.46
2023-12-18T09:36:15.656Z,5.59
2023-12-18T09:39:20.996Z,5.64
2023-12-18T09:42:23.711Z,5.74
2023-12-18T09:45:27.063Z,5.80
2023-12-18T09:48:30.043Z,5.92
2023-12-18T09:51:38.031Z,6.00
2023-12-18T09:54:44.356Z,6.11
2023-12-18T09:57:50.281Z,6.24
2023-12-18T10:00:53.898Z,6.36
2023-12-18T10:03:56.902Z,6.44
2023-12-18T10:07:00.556Z,6.57
2023-12-18T10:10:03.520Z,6.68
2023-12-18T10:13:08.541Z,6.81
2023-12-18T10:16:12.195Z,6.88
2023-12-18T10:19:14.910Z,7.03
2023-12-18T10:22:17.964Z,7.20
2023-12-18T10:25:21.644Z,7.29
2023-12-18T10:28:24.295Z,7.38
2023-12-18T10:31:27.126Z,7.52
2023-12-18T10:34:29.974Z,7.57
2023-12-18T10:37:34.550Z,7.69
2023-12-18T10:40:38.533Z,7.83
2023-12-18T10:43:41.868Z,7.90
2023-12-18T10:46:49.058Z,8.03
2023-12-18T10:49:54.653Z,8.06
2023-12-18T10:53:00.115Z,8.04
2023-12-18T10:56:05.371Z,8.15
2023-12-18T10:59:09.639Z,8.27
2023-12-18T11:02:13.773Z,8.36
2023-12-18T11:05:18.569Z,8.46
2023-12-18T11:08:21.854Z,8.51
2023-12-18T11:11:26.136Z,8.49
2023-12-18T11:15:03.708Z,8.58
2023-12-18T11:18:09.515Z,8.57
2023-12-18T11:21:12.333Z,8.63
2023-12-18T11:24:15.096Z,8.64
2023-12-18T11:27:18.932Z,8.71
2023-12-18T11:30:25.413Z,8.74
2023-12-18T11:33:36.064Z,8.77
2023-12-18T11:36:45.288Z,8.96
2023-12-18T11:39:48.066Z,8.94
2023-12-18T11:42:51.037Z,9.02
2023-12-18T11:46:09.861Z,8.98
2023-12-18T11:49:18.818Z,9.01
2023-12-18T11:52:21.815Z,9.01
2023-12-18T11:55:48.602Z,9.15
2023-12-18T11:58:51.567Z,9.18
2023-12-18T12:01:54.531Z,9.14
2023-12-18T12:04:58.026Z,9.16
2023-12-18T12:08:02.283Z,9.20
2023-12-18T12:11:04.928Z,9.26
2023-12-18T12:14:07.687Z,9.37
2023-12-18T12:17:10.318Z,9.31
2023-12-18T12:20:15.959Z,9.26
2023-12-18T12:23:18.792Z,9.27
2023-12-18T12:26:24.123Z,9.29
2023-12-18T12:29:27.824Z,9.35
2023-12-18T12:32:30.641Z,9.35
2023-12-18T12:35:33.656Z,9.28
2023-12-18T12:38:37.901Z,9.25
2023-12-18T12:41:40.761Z,9.24
2023-12-18T12:44:43.424Z,9.34
2023-12-18T12:47:47.701Z,9.38
2023-12-18T12:50:51.695Z,9.34
2023-12-18T12:53:54.321Z,9.33
2023-12-18T12:56:57.023Z,9.34
2023-12-18T12:59:59.979Z,9.30
2023-12-18T13:03:03.389Z,9.30
2023-12-18T13:06:06.589Z,9.29
2023-12-18T13:09:10.802Z,9.29
2023-12-18T13:12:16.688Z,9.29
2023-12-18T13:15:19.549Z,9.22
2023-12-18T13:18:23.805Z,9.21
2023-12-18T13:21:26.648Z,9.10
2023-12-18T13:24:30.354Z,9.05
2023-12-18T13:27:33.060Z,9.01
2023-12-18T13:30:36.302Z,8.99
2023-12-18T13:33:39.117Z,8.95
2023-12-18T13:36:42.015Z,8.91
2023-12-18T13:39:44.914Z,8.84
2023-12-18T13:42:47.861Z,8.79
2023-12-18T13:45:50.640Z,8.69
2023-12-18T13:48:53.411Z,8.69
2023-12-18T13:51:56.213Z,8.66
2023-12-18T13:54:58.896Z,8.60
2023-12-18T13:58:01.597Z,8.49
2023-12-18T14:01:05.286Z,8.36
2023-12-18T14:04:08.338Z,8.34
2023-12-18T14:07:11.181Z,8.35
2023-12-18T14:10:13.935Z,8.36
2023-12-18T14:13:16.678Z,8.33
2023-12-18T14:16:19.400Z,8.32
2023-12-18T14:19:22.120Z,8.28
2023-12-18T14:22:25.135Z,8.22
2023-12-18T14:25:27.878Z,8.07
2023-12-18T14:28:32.284Z,7.94
2023-12-18T14:31:35.336Z,7.89
2023-12-18T14:34:38.213Z,7.81
2023-12-18T14:37:40.958Z,7.67
2023-12-18T14:40:43.668Z,7.49
2023-12-18T14:43:46.921Z,7.33
2023-12-18T14:46:49.672Z,7.19
2023-12-18T14:49:52.440Z,7.04
2023-12-18T14:52:57.165Z,6.93
2023-12-18T14:55:59.837Z,6.81
2023-12-18T14:59:02.538Z,6.68
2023-12-18T15:02:05.224Z,6.62
2023-12-18T15:05:08.071Z,6.59
2023-12-18T15:08:10.732Z,6.51
2023-12-18T15:11:13.427Z,6.48
2023-12-18T15:14:16.026Z,6.42
2023-12-18T15:17:18.762Z,6.33
2023-12-18T15:20:21.598Z,6.27
2023-12-18T15:23:24.201Z,6.30
2023-12-18T15:26:26.815Z,6.18
2023-12-18T15:29:31.194Z,6.15
2023-12-18T15:32:33.850Z,6.10
2023-12-18T15:35:36.808Z,6.03
2023-12-18T15:38:39.849Z,5.86
2023-12-18T15:41:42.501Z,5.90
2023-12-18T15:44:46.947Z,5.82
2023-12-18T15:47:49.718Z,5.71
2023-12-18T15:50:52.490Z,5.63
2023-12-18T15:53:55.944Z,5.62
2023-12-18T15:56:58.848Z,5.59
2023-12-18T16:00:02.960Z,5.58
2023-12-18T16:03:12.475Z,5.50
2023-12-18T16:06:15.386Z,5.43
2023-12-18T16:09:18.018Z,5.33
2023-12-18T16:12:20.951Z,5.24
2023-12-18T16:15:23.712Z,5.21
2023-12-18T16:18:26.551Z,5.12
2023-12-18T16:21:30.644Z,5.03
2023-12-18T16:24:34.200Z,5.02
2023-12-18T16:27:36.864Z,4.99
2023-12-18T16:30:45.037Z,4.95
2023-12-18T16:33:52.672Z,4.88
2023-12-18T16:36:55.409Z,4.88
2023-12-18T16:39:58.853Z,4.90
2023-12-18T16:43:01.656Z,4.71
2023-12-18T16:46:05.102Z,4.55
2023-12-18T16:49:07.806Z,4.43
2023-12-18T16:52:10.543Z,4.35
2023-12-18T16:55:13.608Z,4.30
2023-12-18T16:58:16.328Z,4.28
2023-12-18T17:01:21.318Z,4.23
2023-12-18T17:04:24.193Z,4.24
2023-12-18T17:07:27.225Z,4.25
2023-12-18T17:10:30.264Z,4.18
2023-12-18T17:13:32.914Z,4.29
2023-12-18T17:16:36.093Z,4.25
2023-12-18T17:19:38.830Z,4.42
2023-12-18T17:22:42.051Z,4.46
2023-12-18T17:25:45.087Z,4.46
2023-12-18T17:28:47.731Z,4.39
2023-12-18T17:31:50.521Z,4.32
2023-12-18T17:34:53.191Z,4.24
2023-12-18T17:37:55.833Z,4.04
2023-12-18T17:40:58.475Z,3.81
2023-12-18T17:44:01.169Z,3.79
2023-12-18T17:47:05.216Z,3.74
2023-12-18T17:50:08.412Z,3.78
2023-12-18T17:53:11.203Z,3.83
2023-12-18T17:56:13.953Z,3.72
2023-12-18T17:59:16.608Z,3.70
2023-12-18T18:02:19.288Z,3.68
2023-12-18T18:05:22.030Z,3.57
2023-12-18T18:08:24.752Z,3.56
2023-12-18T18:11:27.436Z,3.59
2023-12-18T18:14:30.195Z,3.68
2023-12-18T18:17:33.073Z,3.64
2023-12-18T18:20:36.107Z,3.49
2023-12-18T18:23:38.765Z,3.48
2023-12-18T18:26:41.782Z,3.24
2023-12-18T18:29:49.854Z,3.08
2023-12-18T18:32:53.738Z,2.96
2023-12-18T18:35:56.567Z,3.04
2023-12-18T18:38:59.354Z,3.06
2023-12-18T18:42:02.528Z,3.09
2023-12-18T18:45:05.633Z,3.07
2023-12-18T18:48:08.818Z,2.96
2023-12-18T18:51:11.613Z,2.84
2023-12-18T18:54:14.415Z,2.75
2023-12-18T18:57:17.400Z,2.71
2023-12-18T19:00:21.967Z,2.71
2023-12-18T19:03:24.786Z,2.71
2023-12-18T19:06:27.864Z,2.80
2023-12-18T19:09:30.830Z,2.73
2023-12-18T19:12:35.900Z,2.66
2023-12-18T19:15:38.854Z,2.62
2023-12-18T19:18:41.999Z,2.60
2023-12-18T19:21:44.763Z,2.64
2023-12-18T19:24:47.617Z,2.65
2023-12-18T19:27:50.525Z,2.60
2023-12-18T19:30:54.106Z,2.59
2023-12-18T19:33:57.023Z,2.67
2023-12-18T19:36:59.889Z,2.70
2023-12-18T19:40:02.854Z,2.78
2023-12-18T19:43:07.323Z,2.66
2023-12-18T19:46:10.451Z,2.43
2023-12-18T19:49:14.434Z,2.31
2023-12-18T19:52:20.250Z,2.45
2023-12-18T19:55:22.912Z,2.52
2023-12-18T19:58:27.821Z,2.62
2023-12-18T20:01:30.554Z,2.47
2023-12-18T20:04:33.234Z,2.40
2023-12-18T20:07:36.144Z,2.26
2023-12-18T20:10:39.382Z,2.39
2023-12-18T20:13:42.009Z,2.48
2023-12-18T20:16:44.904Z,2.39
2023-12-18T20:19:47.694Z,2.31
2023-12-18T20:22:50.419Z,2.17
2023-12-18T20:25:53.126Z,2.02
2023-12-18T20:28:55.773Z,2.01
2023-12-18T20:31:58.466Z,1.93
2023-12-18T20:35:06.343Z,1.86
2023-12-18T20:38:11.214Z,1.77
2023-12-18T20:41:14.052Z,1.79
2023-12-18T20:44:18.573Z,1.74
2023-12-18T20:47:21.212Z,1.77
2023-12-18T20:50:23.941Z,1.81
2023-12-18T20:53:26.537Z,1.97
2023-12-18T20:56:29.257Z,2.12
2023-12-18T20:59:32.166Z,2.17
2023-12-18T21:02:34.846Z,2.21
2023-12-18T21:05:37.587Z,2.20
2023-12-18T21:08:40.326Z,1.97
2023-12-18T21:11:43.206Z,1.83
2023-12-18T21:14:45.890Z,1.84
2023-12-18T21:17:48.689Z,1.86
2023-12-18T21:20:51.365Z,1.80
2023-12-18T21:23:57.079Z,1.64
2023-12-18T21:27:00.140Z,1.69
2023-12-18T21:30:02.782Z,1.80
2023-12-18T21:33:05.634Z,2.02
2023-12-18T21:36:11.055Z,2.13
2023-12-18T21:39:13.877Z,2.40
2023-12-18T21:42:16.505Z,2.41
2023-12-18T21:45:20.481Z,2.29
2023-12-18T21:48:23.379Z,2.18
2023-12-18T21:51:31.057Z,2.05
2023-12-18T21:54:40.368Z,1.90
2023-12-18T21:57:43.163Z,1.78
2023-12-18T22:00:46.021Z,1.70
2023-12-18T22:03:48.784Z,1.76
2023-12-18T22:06:51.768Z,1.74
2023-12-18T22:09:56.797Z,1.66
2023-12-18T22:13:00.133Z,1.70
2023-12-18T22:16:03.002Z,1.74
2023-12-18T22:19:05.725Z,1.75
2023-12-18T22:22:08.388Z,1.84
2023-12-18T22:25:11.229Z,1.92
2023-12-18T22:28:13.905Z,1.94
2023-12-18T22:31:16.823Z,1.97
2023-12-18T22:34:19.660Z,1.88
2023-12-18T22:37:22.415Z,1.76
2023-12-18T22:40:25.058Z,1.76
2023-12-18T22:43:27.693Z,1.76
2023-12-18T22:46:30.350Z,1.79
2023-12-18T22:49:33.184Z,1.78
2023-12-18T22:52:35.926Z,1.68
2023-12-18T22:55:38.537Z,1.60
2023-12-18T22:58:41.202Z,1.59
2023-12-18T23:01:43.842Z,1.62
2023-12-18T23:04:46.680Z,1.59
2023-12-18T23:07:50.247Z,1.56
2023-12-18T23:10:53.624Z,1.58
2023-12-18T23:13:56.318Z,1.62
2023-12-18T23:16:58.957Z,1.67
2023-12-18T23:20:01.949Z,1.68
2023-12-18T23:23:04.691Z,1.38
2023-12-18T23:26:09.849Z,1.29
2023-12-18T23:29:12.593Z,1.45
2023-12-18T23:32:15.538Z,1.48
2023-12-18T23:35:18.330Z,1.44
2023-12-18T23:38:21.182Z,1.49
2023-12-18T23:41:23.916Z,1.54
2023-12-18T23:44:26.720Z,1.47
2023-12-18T23:47:29.425Z,1.45
2023-12-18T23:50:32.131Z,1.58
2023-12-18T23:53:34.873Z,1.56
2023-12-18T23:56:40.458Z,1.64
2023-12-18T23:59:43.681Z,1.66
